sensor_id;sensor_type;location;lat;lon;timestamp;pressure;altitude;pressure_sealevel;temperature;humidity
18765;BME280;9511;54.242;12.448;2023-09-07T03:05:18;102369.59;;;16.26;100.00
18765;BME280;9511;54.242;12.448;2023-09-07T03:07:47;102369.72;;;16.30;100.00
18765;BME280;9511;54.242;12.448;2023-09-07T03:10:16;102374.16;;;16.30;100.00
18765;BME280;9511;54.242;12.448;2023-09-07T03:12:45;102375.97;;;16.31;100.00
18765;BME280;9511;54.242;12.448;2023-09-07T03:15:12;102375.97;;;16.31;100.00
18765;BME280;9511;54.242;12.448;2023-09-07T03:17:41;102368.03;;;16.34;100.00
18765;BME280;9511;54.242;12.448;2023-09-07T03:20:10;102378.72;;;16.34;100.00
18765;BME280;9511;54.242;12.448;2023-09-07T03:22:44;102377.88;;;16.35;100.00
18765;BME280;9511;54.242;12.448;2023-09-07T03:25:13;102370.78;;;16.37;100.00
18765;BME280;9511;54.242;12.448;2023-09-07T03:27:41;102373.53;;;16.40;100.00
18765;BME280;9511;54.242;12.448;2023-09-07T03:30:11;102373.50;;;16.38;100.00
18765;BME280;9511;54.242;12.448;2023-09-07T03:32:39;102374.47;;;16.40;100.00
18765;BME280;9511;54.242;12.448;2023-09-07T03:35:07;102373.53;;;16.40;100.00
18765;BME280;9511;54.242;12.448;2023-09-07T03:37:35;102377.16;;;16.42;100.00
18765;BME280;9511;54.242;12.448;2023-09-07T03:40:05;102372.69;;;16.41;100.00
18765;BME280;9511;54.242;12.448;2023-09-07T03:42:35;102380.75;;;16.42;100.00
18765;BME280;9511;54.242;12.448;2023-09-07T03:45:03;102370.06;;;16.42;100.00
18765;BME280;9511;54.242;12.448;2023-09-07T03:47:32;102379.91;;;16.45;100.00
18765;BME280;9511;54.242;12.448;2023-09-07T03:50:00;102382.56;;;16.45;100.00
18765;BME280;9511;54.242;12.448;2023-09-07T03:52:29;102379.09;;;16.48;100.00
18765;BME280;9511;54.242;12.448;2023-09-07T03:54:59;102381.75;;;16.46;100.00
18765;BME280;9511;54.242;12.448;2023-09-07T03:57:28;102384.47;;;16.49;100.00
18765;BME280;9511;54.242;12.448;2023-09-07T03:59:57;102373.81;;;16.51;100.00
18765;BME280;9511;54.242;12.448;2023-09-07T04:02:24;102389.03;;;16.53;100.00
18765;BME280;9511;54.242;12.448;2023-09-07T04:04:53;102381.06;;;16.55;100.00
18765;BME280;9511;54.242;12.448;2023-09-07T04:07:21;102382.88;;;16.56;100.00
18765;BME280;9511;54.242;12.448;2023-09-07T04:09:50;102381.97;;;16.55;100.00
18765;BME280;9511;54.242;12.448;2023-09-07T04:12:17;102371.44;;;16.61;100.00
18765;BME280;9511;54.242;12.448;2023-09-07T04:14:46;102382.28;;;16.67;100.00
18765;BME280;9511;54.242;12.448;2023-09-07T04:17:13;102380.34;;;16.62;100.00
18765;BME280;9511;54.242;12.448;2023-09-07T04:19:41;102383.94;;;16.62;100.00
18765;BME280;9511;54.242;12.448;2023-09-07T04:22:10;102382.28;;;16.67;100.00
18765;BME280;9511;54.242;12.448;2023-09-07T04:24:38;102389.56;;;16.71;100.00
18765;BME280;9511;54.242;12.448;2023-09-07T04:27:06;102382.41;;;16.70;100.00
18765;BME280;9511;54.242;12.448;2023-09-07T04:29:34;102389.72;;;16.78;100.00
18765;BME280;9511;54.242;12.448;2023-09-07T04:32:03;102387.81;;;16.73;100.00
18765;BME280;9511;54.242;12.448;2023-09-07T04:34:31;102386.97;;;16.75;100.00
18765;BME280;9511;54.242;12.448;2023-09-07T04:36:58;102388.84;;;16.79;100.00
18765;BME280;9511;54.242;12.448;2023-09-07T04:39:26;102386.16;;;16.79;100.00
18765;BME280;9511;54.242;12.448;2023-09-07T04:41:53;102386.47;;;16.91;100.00
18765;BME280;9511;54.242;12.448;2023-09-07T04:44:21;102395.59;;;16.97;100.00
18765;BME280;9511;54.242;12.448;2023-09-07T04:46:48;102377.91;;;17.04;100.00
18765;BME280;9511;54.242;12.448;2023-09-07T04:49:17;102392.13;;;17.03;100.00
18765;BME280;9511;54.242;12.448;2023-09-07T04:51:45;102392.06;;;17.00;100.00
18765;BME280;9511;54.242;12.448;2023-09-07T04:54:12;102395.72;;;17.04;100.00
18765;BME280;9511;54.242;12.448;2023-09-07T04:56:40;102388.47;;;16.98;100.00
18765;BME280;9511;54.242;12.448;2023-09-07T04:59:07;102389.28;;;16.95;100.00
18765;BME280;9511;54.242;12.448;2023-09-07T05:01:35;102401.91;;;17.03;100.00
18765;BME280;9511;54.242;12.448;2023-09-07T05:04:02;102399.22;;;17.01;100.00
18765;BME280;9511;54.242;12.448;2023-09-07T05:06:31;102397.47;;;17.03;100.00
18765;BME280;9511;54.242;12.448;2023-09-07T05:09:05;102401.91;;;17.03;100.00
18765;BME280;9511;54.242;12.448;2023-09-07T05:11:32;102405.56;;;17.05;100.00
18765;BME280;9511;54.242;12.448;2023-09-07T05:14:01;102405.69;;;17.11;100.00
18765;BME280;9511;54.242;12.448;2023-09-07T05:16:29;102411.81;;;17.05;100.00
18765;BME280;9511;54.242;12.448;2023-09-07T05:18:56;102408.34;;;17.09;100.00
18765;BME280;9511;54.242;12.448;2023-09-07T05:21:23;102415.66;;;17.16;100.00
18765;BME280;9511;54.242;12.448;2023-09-07T05:23:53;102416.56;;;17.18;100.00
18765;BME280;9511;54.242;12.448;2023-09-07T05:26:21;102415.56;;;17.13;100.00
18765;BME280;9511;54.242;12.448;2023-09-07T05:28:50;102412.19;;;17.20;100.00
18765;BME280;9511;54.242;12.448;2023-09-07T05:31:18;102416.00;;;17.32;100.00
18765;BME280;9511;54.242;12.448;2023-09-07T05:33:45;102414.16;;;17.29;100.00
18765;BME280;9511;54.242;12.448;2023-09-07T05:36:12;102421.53;;;17.38;100.00
18765;BME280;9511;54.242;12.448;2023-09-07T05:38:40;102417.88;;;17.36;100.00
18765;BME280;9511;54.242;12.448;2023-09-07T05:41:09;102417.88;;;17.36;100.00
18765;BME280;9511;54.242;12.448;2023-09-07T05:43:36;102419.69;;;17.37;100.00
18765;BME280;9511;54.242;12.448;2023-09-07T05:46:03;102417.84;;;17.33;100.00
18765;BME280;9511;54.242;12.448;2023-09-07T05:48:31;102422.34;;;17.35;100.00
18765;BME280;9511;54.242;12.448;2023-09-07T05:50:58;102419.78;;;17.40;100.00
18765;BME280;9511;54.242;12.448;2023-09-07T05:53:26;102419.81;;;17.43;100.00
18765;BME280;9511;54.242;12.448;2023-09-07T05:55:53;102419.81;;;17.43;100.00
18765;BME280;9511;54.242;12.448;2023-09-07T05:58:22;102423.38;;;17.42;100.00
18765;BME280;9511;54.242;12.448;2023-09-07T06:00:49;102421.66;;;17.44;100.00
18765;BME280;9511;54.242;12.448;2023-09-07T06:03:17;102427.22;;;17.53;100.00
18765;BME280;9511;54.242;12.448;2023-09-07T06:05:45;102422.09;;;17.64;100.00
18765;BME280;9511;54.242;12.448;2023-09-07T06:08:12;102415.78;;;17.60;100.00
18765;BME280;9511;54.242;12.448;2023-09-07T06:10:40;102429.25;;;17.63;100.00
18765;BME280;9511;54.242;12.448;2023-09-07T06:13:08;102432.03;;;17.69;100.00
18765;BME280;9511;54.242;12.448;2023-09-07T06:15:37;102439.06;;;17.64;100.00
18765;BME280;9511;54.242;12.448;2023-09-07T06:18:04;102439.25;;;17.72;100.00
18765;BME280;9511;54.242;12.448;2023-09-07T06:20:33;102441.94;;;17.72;100.00
18765;BME280;9511;54.242;12.448;2023-09-07T06:23:01;102441.13;;;17.74;100.00
18765;BME280;9511;54.242;12.448;2023-09-07T06:25:29;102438.31;;;17.71;100.00
18765;BME280;9511;54.242;12.448;2023-09-07T06:27:57;102443.00;;;17.78;100.00
18765;BME280;9511;54.242;12.448;2023-09-07T06:30:24;102441.28;;;17.82;100.00
18765;BME280;9511;54.242;12.448;2023-09-07T06:32:53;102435.16;;;17.88;100.00
18765;BME280;9511;54.242;12.448;2023-09-07T06:35:22;102439.59;;;17.86;100.00
18765;BME280;9511;54.242;12.448;2023-09-07T06:37:50;102437.97;;;17.94;100.00
18765;BME280;9511;54.242;12.448;2023-09-07T06:40:20;102436.28;;;17.99;100.00
18765;BME280;9511;54.242;12.448;2023-09-07T06:42:52;102448.00;;;18.04;100.00
18765;BME280;9511;54.242;12.448;2023-09-07T06:45:21;102448.94;;;18.06;100.00
18765;BME280;9511;54.242;12.448;2023-09-07T06:47:50;102447.22;;;18.08;100.00
18765;BME280;9511;54.242;12.448;2023-09-07T06:50:20;102455.31;;;18.11;100.00
18765;BME280;9511;54.242;12.448;2023-09-07T06:52:48;102455.50;;;18.20;100.00
18765;BME280;9511;54.242;12.448;2023-09-07T06:55:15;102451.16;;;18.25;100.00
18765;BME280;9511;54.242;12.448;2023-09-07T06:57:44;102453.97;;;18.33;100.00
18765;BME280;9511;54.242;12.448;2023-09-07T07:00:13;102450.41;;;18.33;100.00
18765;BME280;9511;54.242;12.448;2023-09-07T07:02:41;102454.84;;;18.30;100.00
18765;BME280;9511;54.242;12.448;2023-09-07T07:05:09;102454.06;;;18.38;100.00
18765;BME280;9511;54.242;12.448;2023-09-07T07:07:39;102450.63;;;18.43;100.00
18765;BME280;9511;54.242;12.448;2023-09-07T07:10:07;102458.75;;;18.48;100.00
18765;BME280;9511;54.242;12.448;2023-09-07T07:12:35;102460.56;;;18.50;100.00
18765;BME280;9511;54.242;12.448;2023-09-07T07:15:05;102458.06;;;18.58;100.00
18765;BME280;9511;54.242;12.448;2023-09-07T07:17:33;102462.47;;;18.56;100.00
18765;BME280;9511;54.242;12.448;2023-09-07T07:20:01;102465.28;;;18.64;100.00
18765;BME280;9511;54.242;12.448;2023-09-07T07:22:29;102474.94;;;18.52;100.00
18765;BME280;9511;54.242;12.448;2023-09-07T07:25:00;102470.34;;;18.47;100.00
18765;BME280;9511;54.242;12.448;2023-09-07T07:27:31;102471.41;;;18.56;100.00
18765;BME280;9511;54.242;12.448;2023-09-07T07:29:59;102470.66;;;18.64;100.00
18765;BME280;9511;54.242;12.448;2023-09-07T07:32:26;102470.78;;;18.68;100.00
18765;BME280;9511;54.242;12.448;2023-09-07T07:34:53;102467.22;;;18.69;100.00
18765;BME280;9511;54.242;12.448;2023-09-07T07:37:21;102478.13;;;18.78;100.00
18765;BME280;9511;54.242;12.448;2023-09-07T07:39:49;102473.94;;;18.93;100.00
18765;BME280;9511;54.242;12.448;2023-09-07T07:42:18;102479.31;;;18.94;100.00
18765;BME280;9511;54.242;12.448;2023-09-07T07:44:47;102478.63;;;19.06;100.00
18765;BME280;9511;54.242;12.448;2023-09-07T07:47:14;102477.94;;;19.18;100.00
18765;BME280;9511;54.242;12.448;2023-09-07T07:49:42;102479.75;;;19.20;100.00
18765;BME280;9511;54.242;12.448;2023-09-07T07:52:10;102478.22;;;19.34;100.00
18765;BME280;9511;54.242;12.448;2023-09-07T07:54:38;102480.94;;;19.37;100.00
18765;BME280;9511;54.242;12.448;2023-09-07T07:57:05;102478.47;;;19.50;100.00
18765;BME280;9511;54.242;12.448;2023-09-07T07:59:35;102479.38;;;19.50;100.00
18765;BME280;9511;54.242;12.448;2023-09-07T08:02:02;102474.03;;;19.52;100.00
18765;BME280;9511;54.242;12.448;2023-09-07T08:04:32;102477.69;;;19.57;100.00
18765;BME280;9511;54.242;12.448;2023-09-07T08:07:01;102479.63;;;19.66;100.00
18765;BME280;9511;54.242;12.448;2023-09-07T08:09:31;102481.66;;;19.82;100.00
18765;BME280;9511;54.242;12.448;2023-09-07T08:11:58;102479.97;;;19.88;100.00
18765;BME280;9511;54.242;12.448;2023-09-07T08:14:29;102474.75;;;19.98;100.00
18765;BME280;9511;54.242;12.448;2023-09-07T08:16:59;102478.47;;;20.09;100.00
18765;BME280;9511;54.242;12.448;2023-09-07T08:19:27;102469.69;;;20.22;100.00
18765;BME280;9511;54.242;12.448;2023-09-07T08:21:56;102464.50;;;20.36;100.00
18765;BME280;9511;54.242;12.448;2023-09-07T08:24:24;102465.41;;;20.36;100.00
18765;BME280;9511;54.242;12.448;2023-09-07T08:26:52;102464.44;;;20.34;100.00
18765;BME280;9511;54.242;12.448;2023-09-07T08:29:21;102462.91;;;20.52;100.00
18765;BME280;9511;54.242;12.448;2023-09-07T08:31:51;102469.06;;;20.43;100.00
18765;BME280;9511;54.242;12.448;2023-09-07T08:34:20;102463.78;;;20.51;100.00
18765;BME280;9511;54.242;12.448;2023-09-07T08:36:48;102462.94;;;20.56;100.00
18765;BME280;9511;54.242;12.448;2023-09-07T08:39:16;102460.31;;;20.62;100.00
18765;BME280;9511;54.242;12.448;2023-09-07T08:41:44;102462.25;;;20.73;100.00
18765;BME280;9511;54.242;12.448;2023-09-07T08:44:12;102456.91;;;20.77;100.00
18765;BME280;9511;54.242;12.448;2023-09-07T08:46:41;102457.88;;;20.87;100.00
18765;BME280;9511;54.242;12.448;2023-09-07T08:49:10;102455.34;;;20.99;99.65
18765;BME280;9511;54.242;12.448;2023-09-07T08:51:39;102460.88;;;21.20;99.10
18765;BME280;9511;54.242;12.448;2023-09-07T08:54:07;102464.34;;;21.06;97.38
18765;BME280;9511;54.242;12.448;2023-09-07T08:56:34;102461.06;;;21.37;97.47
18765;BME280;9511;54.242;12.448;2023-09-07T08:59:02;102456.66;;;21.45;96.27
18765;BME280;9511;54.242;12.448;2023-09-07T09:01:29;102451.34;;;21.61;95.50
18765;BME280;9511;54.242;12.448;2023-09-07T09:03:58;102450.63;;;21.86;94.18
18765;BME280;9511;54.242;12.448;2023-09-07T09:06:25;102447.06;;;22.01;92.93
18765;BME280;9511;54.242;12.448;2023-09-07T09:08:55;102456.19;;;22.20;91.64
18765;BME280;9511;54.242;12.448;2023-09-07T09:11:24;102454.50;;;22.43;91.15
18765;BME280;9511;54.242;12.448;2023-09-07T09:13:53;102449.13;;;22.57;90.37
18765;BME280;9511;54.242;12.448;2023-09-07T09:16:20;102441.94;;;22.68;89.11
18765;BME280;9511;54.242;12.448;2023-09-07T09:18:48;102450.06;;;22.85;88.66
18765;BME280;9511;54.242;12.448;2023-09-07T09:21:18;102446.53;;;22.95;87.66
18765;BME280;9511;54.242;12.448;2023-09-07T09:23:48;102444.72;;;23.02;87.01
18765;BME280;9511;54.242;12.448;2023-09-07T09:26:17;102443.84;;;23.06;84.61
18765;BME280;9511;54.242;12.448;2023-09-07T09:28:45;102435.72;;;23.41;85.34
18765;BME280;9511;54.242;12.448;2023-09-07T09:31:13;102434.75;;;23.61;84.24
18765;BME280;9511;54.242;12.448;2023-09-07T09:33:41;102439.25;;;23.74;82.93
18765;BME280;9511;54.242;12.448;2023-09-07T09:36:09;102442.84;;;23.82;81.83
18765;BME280;9511;54.242;12.448;2023-09-07T09:38:36;102432.00;;;23.94;80.46
18765;BME280;9511;54.242;12.448;2023-09-07T09:41:04;102435.59;;;23.90;79.71
18765;BME280;9511;54.242;12.448;2023-09-07T09:43:32;102439.16;;;24.07;79.59
18765;BME280;9511;54.242;12.448;2023-09-07T09:46:00;102437.34;;;24.09;79.67
18765;BME280;9511;54.242;12.448;2023-09-07T09:48:32;102432.75;;;24.38;79.20
18765;BME280;9511;54.242;12.448;2023-09-07T09:51:00;102424.50;;;24.54;78.12
18765;BME280;9511;54.242;12.448;2023-09-07T09:53:28;102433.41;;;24.78;77.51
18765;BME280;9511;54.242;12.448;2023-09-07T09:55:55;102433.41;;;24.78;75.09
18765;BME280;9511;54.242;12.448;2023-09-07T09:58:23;102426.94;;;24.96;75.30
18765;BME280;9511;54.242;12.448;2023-09-07T10:00:54;102430.34;;;25.22;74.92
18765;BME280;9511;54.242;12.448;2023-09-07T10:03:26;102427.59;;;25.27;74.74
18765;BME280;9511;54.242;12.448;2023-09-07T10:06:07;102421.19;;;25.37;74.51
18765;BME280;9511;54.242;12.448;2023-09-07T10:08:34;102418.22;;;25.61;74.38
18765;BME280;9511;54.242;12.448;2023-09-07T10:11:07;102414.56;;;25.65;71.69
18765;BME280;9511;54.242;12.448;2023-09-07T10:13:35;102416.59;;;25.43;71.75
18765;BME280;9511;54.242;12.448;2023-09-07T10:16:05;102417.16;;;25.73;71.49
18765;BME280;9511;54.242;12.448;2023-09-07T10:18:36;102410.81;;;25.79;71.40
18765;BME280;9511;54.242;12.448;2023-09-07T10:21:03;102407.88;;;25.97;70.55
18765;BME280;9511;54.242;12.448;2023-09-07T10:23:38;102400.44;;;26.13;71.01
18765;BME280;9511;54.242;12.448;2023-09-07T10:26:11;102401.06;;;26.32;70.13
18765;BME280;9511;54.242;12.448;2023-09-07T10:28:38;102404.78;;;26.28;69.76
18765;BME280;9511;54.242;12.448;2023-09-07T10:31:13;102402.84;;;26.36;69.02
18765;BME280;9511;54.242;12.448;2023-09-07T10:33:40;102403.56;;;26.48;66.97
18765;BME280;9511;54.242;12.448;2023-09-07T10:36:08;102408.06;;;26.51;67.92
18765;BME280;9511;54.242;12.448;2023-09-07T10:38:35;102399.56;;;26.74;67.56
18765;BME280;9511;54.242;12.448;2023-09-07T10:41:04;102404.00;;;26.80;66.46
18765;BME280;9511;54.242;12.448;2023-09-07T10:43:33;102403.91;;;26.86;66.86
18765;BME280;9511;54.242;12.448;2023-09-07T10:46:00;102391.97;;;26.96;66.86
18765;BME280;9511;54.242;12.448;2023-09-07T10:48:30;102396.38;;;27.03;65.92
18765;BME280;9511;54.242;12.448;2023-09-07T10:50:57;102393.41;;;27.20;66.82
18765;BME280;9511;54.242;12.448;2023-09-07T10:53:28;102388.66;;;27.31;65.23
18765;BME280;9511;54.242;12.448;2023-09-07T10:55:57;102392.19;;;27.35;65.67
18765;BME280;9511;54.242;12.448;2023-09-07T10:58:26;102385.41;;;27.59;65.24
18765;BME280;9511;54.242;12.448;2023-09-07T11:00:54;102389.72;;;27.22;64.09
18765;BME280;9511;54.242;12.448;2023-09-07T11:03:21;102380.75;;;27.64;64.91
18765;BME280;9511;54.242;12.448;2023-09-07T11:05:51;102371.44;;;27.78;62.73
18765;BME280;9511;54.242;12.448;2023-09-07T11:08:20;102370.69;;;28.12;61.78
18765;BME280;9511;54.242;12.448;2023-09-07T11:10:49;102364.50;;;28.05;59.94
18765;BME280;9511;54.242;12.448;2023-09-07T11:13:17;102366.50;;;28.38;59.57
18765;BME280;9511;54.242;12.448;2023-09-07T11:15:44;102363.41;;;28.53;59.40
18765;BME280;9511;54.242;12.448;2023-09-07T11:18:11;102357.78;;;28.61;59.73
18765;BME280;9511;54.242;12.448;2023-09-07T11:20:39;102364.13;;;28.61;60.50
18765;BME280;9511;54.242;12.448;2023-09-07T11:23:07;102358.97;;;28.49;59.02
18765;BME280;9511;54.242;12.448;2023-09-07T11:25:36;102356.88;;;28.60;59.57
18765;BME280;9511;54.242;12.448;2023-09-07T11:28:04;102357.47;;;28.74;58.66
18765;BME280;9511;54.242;12.448;2023-09-07T11:30:31;102353.06;;;28.67;58.31
18765;BME280;9511;54.242;12.448;2023-09-07T11:33:02;102357.34;;;28.42;56.91
18765;BME280;9511;54.242;12.448;2023-09-07T11:35:31;102351.50;;;28.94;57.05
18765;BME280;9511;54.242;12.448;2023-09-07T11:37:59;102357.47;;;28.74;55.81
18765;BME280;9511;54.242;12.448;2023-09-07T11:40:28;102353.84;;;28.74;55.00
18765;BME280;9511;54.242;12.448;2023-09-07T11:42:55;102356.84;;;28.99;57.14
18765;BME280;9511;54.242;12.448;2023-09-07T11:45:22;102354.91;;;29.36;57.38
18765;BME280;9511;54.242;12.448;2023-09-07T11:47:50;102350.72;;;29.25;55.26
18765;BME280;9511;54.242;12.448;2023-09-07T11:50:17;102345.31;;;29.56;55.15
18765;BME280;9511;54.242;12.448;2023-09-07T11:52:45;102349.88;;;29.21;54.90
18765;BME280;9511;54.242;12.448;2023-09-07T11:55:13;102342.53;;;29.23;55.34
18765;BME280;9511;54.242;12.448;2023-09-07T11:57:42;102342.97;;;29.41;55.87
18765;BME280;9511;54.242;12.448;2023-09-07T12:00:11;102344.06;;;29.01;52.91
18765;BME280;9511;54.242;12.448;2023-09-07T12:02:38;102333.00;;;29.40;53.60
18765;BME280;9511;54.242;12.448;2023-09-07T12:05:07;102339.03;;;29.20;53.29
18765;BME280;9511;54.242;12.448;2023-09-07T12:07:45;102327.72;;;29.33;53.94
18765;BME280;9511;54.242;12.448;2023-09-07T12:10:12;102332.94;;;29.74;53.28
18765;BME280;9511;54.242;12.448;2023-09-07T12:12:42;102325.84;;;29.98;52.77
18765;BME280;9511;54.242;12.448;2023-09-07T12:15:10;102333.88;;;30.02;50.90
18765;BME280;9511;54.242;12.448;2023-09-07T12:17:38;102327.31;;;30.11;51.38
18765;BME280;9511;54.242;12.448;2023-09-07T12:20:06;102327.59;;;30.30;51.34
18765;BME280;9511;54.242;12.448;2023-09-07T12:22:36;102320.69;;;29.88;49.38
18765;BME280;9511;54.242;12.448;2023-09-07T12:25:04;102325.59;;;29.76;48.77
18765;BME280;9511;54.242;12.448;2023-09-07T12:27:33;102328.31;;;29.77;48.74
18765;BME280;9511;54.242;12.448;2023-09-07T12:30:03;102323.81;;;29.75;49.98
18765;BME280;9511;54.242;12.448;2023-09-07T12:32:34;102314.19;;;29.93;50.22
18765;BME280;9511;54.242;12.448;2023-09-07T12:35:01;102320.50;;;29.95;48.61
18765;BME280;9511;54.242;12.448;2023-09-07T12:37:31;102313.84;;;30.03;49.22
18765;BME280;9511;54.242;12.448;2023-09-07T12:39:58;102310.81;;;29.84;49.17
18765;BME280;9511;54.242;12.448;2023-09-07T12:42:25;102308.03;;;30.15;49.17
18765;BME280;9511;54.242;12.448;2023-09-07T12:44:53;102307.81;;;29.94;49.86
18765;BME280;9511;54.242;12.448;2023-09-07T12:47:21;102302.84;;;30.06;50.18
18765;BME280;9511;54.242;12.448;2023-09-07T12:49:49;102298.94;;;29.85;48.90
18765;BME280;9511;54.242;12.448;2023-09-07T12:52:16;102300.66;;;29.89;49.09
18765;BME280;9511;54.242;12.448;2023-09-07T12:54:43;102298.88;;;29.88;48.04
18765;BME280;9511;54.242;12.448;2023-09-07T12:57:10;102298.16;;;30.10;48.10
18765;BME280;9511;54.242;12.448;2023-09-07T12:59:38;102299.41;;;30.29;47.74
18765;BME280;9511;54.242;12.448;2023-09-07T13:02:05;102298.38;;;30.32;47.71
18765;BME280;9511;54.242;12.448;2023-09-07T13:04:34;102288.28;;;30.35;47.64
18765;BME280;9511;54.242;12.448;2023-09-07T13:07:01;102292.16;;;30.28;47.97
18765;BME280;9511;54.242;12.448;2023-09-07T13:09:29;102287.59;;;30.55;47.57
18765;BME280;9511;54.242;12.448;2023-09-07T13:11:56;102282.34;;;30.49;48.30
18765;BME280;9511;54.242;12.448;2023-09-07T13:14:23;102275.25;;;30.44;48.01
18765;BME280;9511;54.242;12.448;2023-09-07T13:16:50;102289.63;;;30.49;47.47
18765;BME280;9511;54.242;12.448;2023-09-07T13:19:18;102282.38;;;30.76;47.33
18765;BME280;9511;54.242;12.448;2023-09-07T13:21:46;102282.38;;;30.76;47.21
18765;BME280;9511;54.242;12.448;2023-09-07T13:24:13;102280.81;;;30.93;47.64
18765;BME280;9511;54.242;12.448;2023-09-07T13:26:41;102275.34;;;30.93;47.01
18765;BME280;9511;54.242;12.448;2023-09-07T13:29:08;102279.34;;;30.83;47.13
18765;BME280;9511;54.242;12.448;2023-09-07T13:31:35;102274.25;;;30.74;46.83
18765;BME280;9511;54.242;12.448;2023-09-07T13:34:03;102268.44;;;30.57;47.06
18765;BME280;9511;54.242;12.448;2023-09-07T13:36:30;102267.34;;;30.61;46.92
18765;BME280;9511;54.242;12.448;2023-09-07T13:38:59;102274.72;;;30.59;47.17
18765;BME280;9511;54.242;12.448;2023-09-07T13:41:26;102273.88;;;30.83;46.88
18765;BME280;9511;54.242;12.448;2023-09-07T13:43:53;102275.41;;;30.92;46.01
18765;BME280;9511;54.242;12.448;2023-09-07T13:46:22;102264.94;;;31.30;45.85
18765;BME280;9511;54.242;12.448;2023-09-07T13:48:50;102260.66;;;31.46;45.92
18765;BME280;9511;54.242;12.448;2023-09-07T13:51:17;102267.94;;;31.22;45.73
18765;BME280;9511;54.242;12.448;2023-09-07T13:53:44;102259.78;;;30.96;46.42
18765;BME280;9511;54.242;12.448;2023-09-07T13:56:13;102259.84;;;30.94;47.19
18765;BME280;9511;54.242;12.448;2023-09-07T13:58:40;102256.00;;;31.00;46.30
18765;BME280;9511;54.242;12.448;2023-09-07T14:01:07;102259.66;;;31.24;45.66
18765;BME280;9511;54.242;12.448;2023-09-07T14:03:35;102253.97;;;31.55;45.16
18765;BME280;9511;54.242;12.448;2023-09-07T14:06:02;102258.09;;;31.65;44.76
18765;BME280;9511;54.242;12.448;2023-09-07T14:08:30;102256.13;;;31.68;43.94
18765;BME280;9511;54.242;12.448;2023-09-07T14:10:59;102255.50;;;31.38;45.29
18765;BME280;9511;54.242;12.448;2023-09-07T14:13:27;102247.03;;;31.68;44.03
18765;BME280;9511;54.242;12.448;2023-09-07T14:15:54;102245.81;;;31.98;43.57
18765;BME280;9511;54.242;12.448;2023-09-07T14:18:22;102246.91;;;32.16;43.66
18765;BME280;9511;54.242;12.448;2023-09-07T14:20:49;102247.00;;;32.37;42.88
18765;BME280;9511;54.242;12.448;2023-09-07T14:23:17;102239.94;;;32.51;42.52
18765;BME280;9511;54.242;12.448;2023-09-07T14:25:46;102239.28;;;32.67;42.17
18765;BME280;9511;54.242;12.448;2023-09-07T14:28:14;102241.63;;;32.56;42.21
18765;BME280;9511;54.242;12.448;2023-09-07T14:30:42;102238.19;;;32.50;42.60
18765;BME280;9511;54.242;12.448;2023-09-07T14:33:09;102232.16;;;32.63;42.54
18765;BME280;9511;54.242;12.448;2023-09-07T14:35:37;102245.31;;;32.55;42.79
18765;BME280;9511;54.242;12.448;2023-09-07T14:38:05;102238.47;;;32.01;43.53
18765;BME280;9511;54.242;12.448;2023-09-07T14:40:32;102241.66;;;31.65;44.09
18765;BME280;9511;54.242;12.448;2023-09-07T14:42:59;102236.94;;;31.46;44.42
18765;BME280;9511;54.242;12.448;2023-09-07T14:45:27;102240.59;;;31.69;44.86
18765;BME280;9511;54.242;12.448;2023-09-07T14:47:56;102229.09;;;31.12;45.59
18765;BME280;9511;54.242;12.448;2023-09-07T14:50:23;102230.16;;;31.80;45.29
18765;BME280;9511;54.242;12.448;2023-09-07T14:52:50;102224.44;;;31.86;45.05
18765;BME280;9511;54.242;12.448;2023-09-07T14:55:18;102226.69;;;31.75;45.34
18765;BME280;9511;54.242;12.448;2023-09-07T14:57:45;102234.94;;;31.97;44.99
18765;BME280;9511;54.242;12.448;2023-09-07T15:00:12;102231.66;;;31.89;44.97
18765;BME280;9511;54.242;12.448;2023-09-07T15:02:40;102233.72;;;31.82;45.40
18765;BME280;9511;54.242;12.448;2023-09-07T15:05:08;102217.41;;;31.79;45.63
18765;BME280;9511;54.242;12.448;2023-09-07T15:07:36;102234.06;;;31.73;45.46
18765;BME280;9511;54.242;12.448;2023-09-07T15:10:03;102231.13;;;31.56;45.72
18765;BME280;9511;54.242;12.448;2023-09-07T15:12:31;102228.19;;;31.60;45.71
18765;BME280;9511;54.242;12.448;2023-09-07T15:14:58;102228.94;;;31.87;44.86
18765;BME280;9511;54.242;12.448;2023-09-07T15:17:26;102239.41;;;31.76;44.61
18765;BME280;9511;54.242;12.448;2023-09-07T15:19:54;102233.00;;;32.01;44.51
18765;BME280;9511;54.242;12.448;2023-09-07T15:22:22;102226.03;;;31.92;44.42
18765;BME280;9511;54.242;12.448;2023-09-07T15:24:50;102224.97;;;31.96;44.00
18765;BME280;9511;54.242;12.448;2023-09-07T15:27:17;102225.59;;;32.24;43.26
18765;BME280;9511;54.242;12.448;2023-09-07T15:29:44;102228.25;;;32.26;43.10
18765;BME280;9511;54.242;12.448;2023-09-07T15:32:11;102227.47;;;32.44;42.55
18765;BME280;9511;54.242;12.448;2023-09-07T15:34:39;102226.34;;;32.70;41.87
18765;BME280;9511;54.242;12.448;2023-09-07T15:37:06;102212.50;;;32.73;41.13
18765;BME280;9511;54.242;12.448;2023-09-07T15:39:35;102214.28;;;32.74;40.51
18765;BME280;9511;54.242;12.448;2023-09-07T15:42:02;102204.91;;;32.60;40.79
18765;BME280;9511;54.242;12.448;2023-09-07T15:44:30;102194.84;;;32.18;40.39
18765;BME280;9511;54.242;12.448;2023-09-07T15:46:57;102203.78;;;32.21;40.86
18765;BME280;9511;54.242;12.448;2023-09-07T15:49:25;102206.97;;;32.95;40.14
18765;BME280;9511;54.242;12.448;2023-09-07T15:51:52;102199.16;;;33.07;39.42
18765;BME280;9511;54.242;12.448;2023-09-07T15:54:19;102202.28;;;33.37;39.84